createdAt,value
2022-11-04T00:03:08.936Z,0.00
2022-11-04T00:08:08.561Z,0.00
2022-11-04T00:13:08.710Z,0.00
2022-11-04T00:18:08.448Z,0.00
2022-11-04T00:23:08.688Z,0.00
2022-11-04T00:28:08.530Z,0.00
2022-11-04T00:33:08.240Z,0.00
2022-11-04T00:38:08.430Z,0.00
2022-11-04T00:43:08.102Z,0.00
2022-11-04T00:48:08.485Z,0.00
2022-11-04T00:53:08.350Z,0.00
2022-11-04T00:58:08.055Z,0.00
2022-11-04T01:03:08.174Z,0.00
2022-11-04T01:08:07.795Z,0.00
2022-11-04T01:13:08.017Z,0.00
2022-11-04T01:18:08.034Z,0.00
2022-11-04T01:23:07.575Z,0.00
2022-11-04T01:28:07.927Z,0.00
2022-11-04T01:33:07.443Z,0.00
2022-11-04T01:38:07.689Z,0.00
2022-11-04T01:43:07.596Z,0.00
2022-11-04T01:48:07.265Z,0.00
2022-11-04T01:53:07.605Z,0.00
2022-11-04T01:58:07.116Z,0.00
2022-11-04T02:03:07.412Z,0.00
2022-11-04T02:08:07.054Z,0.00
2022-11-04T02:13:07.404Z,0.00
2022-11-04T02:18:06.847Z,0.00
2022-11-04T02:23:07.024Z,0.00
2022-11-04T02:28:06.738Z,0.00
2022-11-04T02:33:07.069Z,0.00
2022-11-04T02:38:06.571Z,0.00
2022-11-04T02:43:06.830Z,0.00
2022-11-04T02:48:06.526Z,0.00
2022-11-04T02:53:06.911Z,0.00
2022-11-04T02:58:06.318Z,0.00
2022-11-04T03:03:06.475Z,0.00
2022-11-04T03:08:06.683Z,0.00
2022-11-04T03:13:06.107Z,0.00
2022-11-04T03:18:06.360Z,0.00
2022-11-04T03:23:06.003Z,0.00
2022-11-04T03:28:06.300Z,0.00
2022-11-04T03:33:06.073Z,0.00
2022-11-04T03:38:05.781Z,0.00
2022-11-04T03:43:05.844Z,0.00
2022-11-04T03:48:05.680Z,0.00
2022-11-04T03:53:05.683Z,0.00
2022-11-04T03:58:05.657Z,0.00
2022-11-04T04:03:05.550Z,0.00
2022-11-04T04:08:05.563Z,0.00
2022-11-04T04:13:05.401Z,0.00
2022-11-04T04:18:05.430Z,0.00
2022-11-04T04:23:05.168Z,0.00
2022-11-04T04:28:05.192Z,0.00
2022-11-04T04:33:05.051Z,0.00
2022-11-04T04:38:05.018Z,0.00
2022-11-04T04:43:04.955Z,0.00
2022-11-04T04:48:04.934Z,0.00
2022-11-04T04:53:04.805Z,0.00
2022-11-04T04:58:04.792Z,0.00
2022-11-04T05:03:04.686Z,0.00
2022-11-04T05:08:04.641Z,0.00
2022-11-04T05:13:04.862Z,0.00
2022-11-04T05:18:04.484Z,0.00
2022-11-04T05:23:04.390Z,0.00
2022-11-04T05:28:04.335Z,0.00
2022-11-04T05:33:05.297Z,0.00
2022-11-04T05:38:04.220Z,0.00
2022-11-04T05:43:04.124Z,0.00
2022-11-04T05:48:04.060Z,0.00
2022-11-04T05:53:03.993Z,0.00
2022-11-04T05:58:03.910Z,0.00
2022-11-04T06:03:03.920Z,0.00
2022-11-04T06:08:03.792Z,0.00
2022-11-04T06:13:03.741Z,5.62
2022-11-04T06:18:03.650Z,5.62
2022-11-04T06:23:03.618Z,11.25
2022-11-04T06:28:03.601Z,16.88
2022-11-04T06:33:03.501Z,22.50
2022-11-04T06:38:03.402Z,28.12
2022-11-04T06:43:03.313Z,39.38
2022-11-04T06:48:03.279Z,50.62
2022-11-04T06:53:03.224Z,73.12
2022-11-04T06:58:03.249Z,106.88
2022-11-04T07:03:03.049Z,140.62
2022-11-04T07:08:03.025Z,219.38
2022-11-04T07:13:02.920Z,326.25
2022-11-04T07:18:02.873Z,523.12
2022-11-04T07:23:02.796Z,1406.25
2022-11-04T07:28:02.757Z,736.88
2022-11-04T07:33:02.673Z,421.88
2022-11-04T07:38:02.647Z,326.25
2022-11-04T07:43:02.562Z,315.00
2022-11-04T07:48:02.477Z,281.25
2022-11-04T07:53:02.386Z,196.88
2022-11-04T07:58:02.364Z,129.38
2022-11-04T08:03:02.300Z,106.88
2022-11-04T08:08:02.241Z,101.25
2022-11-04T08:13:02.132Z,73.12
2022-11-04T08:18:02.120Z,67.50
2022-11-04T08:23:02.004Z,73.12
2022-11-04T08:28:01.946Z,90.00
2022-11-04T08:33:01.859Z,101.25
2022-11-04T08:38:01.824Z,151.88
2022-11-04T08:43:01.764Z,168.75
2022-11-04T08:48:05.485Z,151.88
2022-11-04T08:53:01.970Z,135.00
2022-11-04T08:58:02.499Z,140.62
2022-11-04T09:03:01.507Z,129.38
2022-11-04T09:08:01.408Z,118.12
2022-11-04T09:13:01.346Z,95.62
2022-11-04T09:18:01.290Z,84.38
2022-11-04T09:23:01.254Z,84.38
2022-11-04T09:28:01.174Z,67.50
2022-11-04T09:33:01.107Z,73.12
2022-11-04T09:38:01.052Z,90.00
2022-11-04T09:43:00.972Z,67.50
2022-11-04T09:48:00.976Z,45.00
2022-11-04T09:53:00.801Z,45.00
2022-11-04T09:58:00.773Z,67.50
2022-11-04T10:03:00.663Z,73.12
2022-11-04T10:08:00.879Z,78.75
2022-11-04T10:13:00.590Z,73.12
2022-11-04T10:18:00.486Z,67.50
2022-11-04T10:23:00.725Z,95.62
2022-11-04T10:28:00.335Z,95.62
2022-11-04T10:33:00.281Z,95.62
2022-11-04T10:38:00.322Z,95.62
2022-11-04T10:43:00.173Z,90.00
2022-11-04T10:48:00.112Z,95.62
2022-11-04T10:53:00.112Z,101.25
2022-11-04T10:57:59.968Z,112.50
2022-11-04T11:02:59.910Z,112.50
2022-11-04T11:07:59.814Z,106.88
2022-11-04T11:12:59.774Z,101.25
2022-11-04T11:17:59.677Z,95.62
2022-11-04T11:23:04.621Z,112.50
2022-11-04T11:28:00.566Z,101.25
2022-11-04T11:32:59.522Z,90.00
2022-11-04T11:37:59.484Z,140.62
2022-11-04T11:42:59.378Z,129.38
2022-11-04T11:47:59.297Z,101.25
2022-11-04T11:52:59.265Z,84.38
2022-11-04T12:03:00.556Z,73.12
2022-11-04T12:12:59.972Z,106.88
2022-11-04T12:17:58.930Z,95.62
2022-11-04T12:22:58.911Z,112.50
2022-11-04T12:27:58.801Z,106.88
2022-11-04T12:32:58.736Z,84.38
2022-11-04T12:37:58.661Z,73.12
2022-11-04T12:42:58.584Z,112.50
2022-11-04T12:47:58.526Z,123.75
2022-11-04T12:52:58.551Z,101.25
2022-11-04T12:57:58.415Z,78.75
2022-11-04T13:02:58.339Z,67.50
2022-11-04T13:07:58.333Z,73.12
2022-11-04T13:12:58.208Z,84.38
2022-11-04T13:17:58.139Z,84.38
2022-11-04T13:23:08.036Z,84.38
2022-11-04T13:27:58.980Z,84.38
2022-11-04T13:32:57.927Z,95.62
2022-11-04T13:37:57.884Z,73.12
2022-11-04T13:42:57.816Z,28.12
2022-11-04T13:47:57.737Z,50.62
2022-11-04T13:52:57.643Z,50.62
2022-11-04T13:57:57.615Z,45.00
2022-11-04T14:02:57.697Z,50.62
2022-11-04T14:07:57.511Z,39.38
2022-11-04T14:12:57.469Z,39.38
2022-11-04T14:17:57.733Z,33.75
2022-11-04T14:22:57.261Z,28.12
2022-11-04T14:27:57.196Z,11.25
2022-11-04T14:32:57.116Z,11.25
2022-11-04T14:37:57.108Z,11.25
2022-11-04T14:42:57.155Z,11.25
2022-11-04T14:47:57.044Z,11.25
2022-11-04T14:52:56.877Z,5.62
2022-11-04T14:57:56.814Z,5.62
2022-11-04T15:02:56.777Z,0.00
2022-11-04T15:07:56.710Z,5.62
2022-11-04T15:12:56.596Z,5.62
2022-11-04T15:17:56.534Z,0.00
2022-11-04T15:22:56.488Z,0.00
2022-11-04T15:27:56.401Z,0.00
2022-11-04T15:32:56.399Z,0.00
2022-11-04T15:37:56.316Z,0.00
2022-11-04T15:42:56.245Z,0.00
2022-11-04T15:47:56.163Z,0.00
2022-11-04T15:52:56.135Z,0.00
2022-11-04T15:57:56.030Z,0.00
2022-11-04T16:02:56.005Z,0.00
2022-11-04T16:07:56.218Z,0.00
2022-11-04T16:12:55.851Z,0.00
2022-11-04T16:17:55.815Z,0.00
2022-11-04T16:22:55.700Z,0.00
2022-11-04T16:27:55.672Z,0.00
2022-11-04T16:32:55.595Z,0.00
2022-11-04T16:37:55.527Z,0.00
2022-11-04T16:42:55.539Z,0.00
2022-11-04T16:47:55.368Z,0.00
2022-11-04T16:52:55.328Z,0.00
2022-11-04T16:57:55.308Z,0.00
2022-11-04T17:02:55.199Z,0.00
2022-11-04T17:08:00.186Z,0.00
2022-11-04T17:12:56.109Z,0.00
2022-11-04T17:17:55.007Z,0.00
2022-11-04T17:22:54.905Z,0.00
2022-11-04T17:27:54.877Z,0.00
2022-11-04T17:32:54.838Z,0.00
2022-11-04T17:37:54.747Z,0.00
2022-11-04T17:42:54.643Z,0.00
2022-11-04T17:47:54.675Z,0.00
2022-11-04T17:52:54.545Z,0.00
2022-11-04T17:57:54.489Z,0.00
2022-11-04T18:02:54.480Z,0.00
2022-11-04T18:07:54.350Z,0.00
2022-11-04T18:12:54.996Z,0.00
2022-11-04T18:17:54.204Z,0.00
2022-11-04T18:22:54.202Z,0.00
2022-11-04T18:27:54.147Z,0.00
2022-11-04T18:32:54.047Z,0.00
2022-11-04T18:37:53.931Z,0.00
2022-11-04T18:42:53.931Z,0.00
2022-11-04T18:47:53.843Z,0.00
2022-11-04T18:52:53.782Z,0.00
2022-11-04T18:57:53.675Z,0.00
2022-11-04T19:02:53.669Z,0.00
2022-11-04T19:07:53.528Z,0.00
2022-11-04T19:12:53.608Z,0.00
2022-11-04T19:17:53.516Z,0.00
2022-11-04T19:22:53.407Z,0.00
2022-11-04T19:28:11.955Z,0.00
2022-11-04T19:32:54.193Z,0.00
2022-11-04T19:37:53.242Z,0.00
2022-11-04T19:42:53.117Z,0.00
2022-11-04T19:47:53.037Z,0.00
2022-11-04T19:52:52.930Z,0.00
2022-11-04T19:57:52.927Z,0.00
2022-11-04T20:02:52.804Z,0.00
2022-11-04T20:07:52.772Z,0.00
2022-11-04T20:12:52.672Z,0.00
2022-11-04T20:17:54.677Z,0.00
2022-11-04T20:22:52.536Z,0.00
2022-11-04T20:27:52.514Z,0.00
2022-11-04T20:32:52.461Z,0.00
2022-11-04T20:37:52.359Z,0.00
2022-11-04T20:42:52.333Z,0.00
2022-11-04T20:47:52.234Z,0.00
2022-11-04T20:52:52.254Z,0.00
2022-11-04T20:57:52.301Z,0.00
2022-11-04T21:02:52.073Z,0.00
2022-11-04T21:07:51.998Z,0.00
2022-11-04T21:12:51.890Z,0.00
2022-11-04T21:17:51.873Z,0.00
2022-11-04T21:22:51.823Z,0.00
2022-11-04T21:27:51.775Z,0.00
2022-11-04T21:32:51.706Z,0.00
2022-11-04T21:37:51.664Z,0.00
2022-11-04T21:42:51.520Z,0.00
2022-11-04T21:47:51.523Z,0.00
2022-11-04T21:52:51.445Z,0.00
2022-11-04T21:57:51.540Z,0.00
2022-11-04T22:02:51.609Z,0.00
2022-11-04T22:07:52.334Z,0.00
2022-11-04T22:12:51.439Z,0.00
2022-11-04T22:17:51.148Z,0.00
2022-11-04T22:22:51.002Z,0.00
2022-11-04T22:27:50.903Z,0.00
2022-11-04T22:32:54.511Z,0.00
2022-11-04T22:37:50.807Z,0.00
2022-11-04T22:42:50.720Z,0.00
2022-11-04T22:47:50.668Z,0.00
2022-11-04T22:52:50.623Z,0.00
2022-11-04T22:57:50.531Z,0.00
2022-11-04T23:02:50.702Z,0.00
2022-11-04T23:07:50.455Z,0.00
2022-11-04T23:12:50.336Z,0.00
2022-11-04T23:17:50.260Z,0.00
2022-11-04T23:22:50.220Z,0.00
2022-11-04T23:27:50.120Z,0.00
2022-11-04T23:32:50.057Z,0.00
2022-11-04T23:37:50.010Z,0.00
2022-11-04T23:42:49.925Z,0.00
2022-11-04T23:47:49.843Z,0.00
2022-11-04T23:52:49.804Z,0.00
2022-11-04T23:57:49.746Z,0.00
